sensor_id;sensor_type;location;lat;lon;timestamp;P1;durP1;ratioP1;P2;durP2;ratioP2
58567;SDS011;44354;46.192;-1.076;2023-01-19T00:01:46;27.77;;;26.35;;
58567;SDS011;44354;46.192;-1.076;2023-01-19T00:04:11;27.35;;;25.95;;
58567;SDS011;44354;46.192;-1.076;2023-01-19T00:06:37;23.60;;;22.40;;
58567;SDS011;44354;46.192;-1.076;2023-01-19T00:09:03;25.65;;;24.35;;
58567;SDS011;44354;46.192;-1.076;2023-01-19T00:11:28;25.75;;;24.45;;
58567;SDS011;44354;46.192;-1.076;2023-01-19T00:13:54;26.20;;;24.70;;
58567;SDS011;44354;46.192;-1.076;2023-01-19T00:16:20;24.10;;;22.88;;
58567;SDS011;44354;46.192;-1.076;2023-01-19T00:18:47;24.35;;;23.08;;
58567;SDS011;44354;46.192;-1.076;2023-01-19T00:21:15;23.65;;;22.45;;
58567;SDS011;44354;46.192;-1.076;2023-01-19T00:23:41;25.35;;;24.05;;
58567;SDS011;44354;46.192;-1.076;2023-01-19T00:26:08;24.02;;;22.80;;
58567;SDS011;44354;46.192;-1.076;2023-01-19T00:28:34;23.73;;;22.52;;
58567;SDS011;44354;46.192;-1.076;2023-01-19T00:31:00;25.30;;;23.90;;
58567;SDS011;44354;46.192;-1.076;2023-01-19T00:33:26;26.50;;;24.88;;
58567;SDS011;44354;46.192;-1.076;2023-01-19T00:35:52;25.85;;;24.52;;
58567;SDS011;44354;46.192;-1.076;2023-01-19T00:38:21;26.42;;;25.02;;
58567;SDS011;44354;46.192;-1.076;2023-01-19T00:40:47;26.42;;;25.02;;
58567;SDS011;44354;46.192;-1.076;2023-01-19T00:43:13;25.92;;;24.58;;
58567;SDS011;44354;46.192;-1.076;2023-01-19T00:45:38;24.85;;;23.55;;
58567;SDS011;44354;46.192;-1.076;2023-01-19T00:48:04;25.60;;;24.30;;
58567;SDS011;44354;46.192;-1.076;2023-01-19T00:50:30;25.25;;;23.95;;
58567;SDS011;44354;46.192;-1.076;2023-01-19T00:52:57;27.15;;;25.75;;
58567;SDS011;44354;46.192;-1.076;2023-01-19T00:55:25;25.17;;;23.88;;
58567;SDS011;44354;46.192;-1.076;2023-01-19T00:57:54;27.50;;;26.10;;
58567;SDS011;44354;46.192;-1.076;2023-01-19T01:00:21;25.27;;;23.98;;
58567;SDS011;44354;46.192;-1.076;2023-01-19T01:02:47;26.33;;;24.92;;
58567;SDS011;44354;46.192;-1.076;2023-01-19T01:05:15;26.10;;;24.75;;
58567;SDS011;44354;46.192;-1.076;2023-01-19T01:07:42;26.02;;;24.70;;
58567;SDS011;44354;46.192;-1.076;2023-01-19T01:12:44;26.08;;;24.73;;
58567;SDS011;44354;46.192;-1.076;2023-01-19T01:15:10;25.02;;;23.73;;
58567;SDS011;44354;46.192;-1.076;2023-01-19T01:17:37;27.15;;;25.75;;
58567;SDS011;44354;46.192;-1.076;2023-01-19T01:20:32;26.40;;;25.00;;
58567;SDS011;44354;46.192;-1.076;2023-01-19T01:22:58;27.70;;;26.30;;
58567;SDS011;44354;46.192;-1.076;2023-01-19T01:25:25;24.50;;;23.23;;
58567;SDS011;44354;46.192;-1.076;2023-01-19T01:27:52;27.67;;;26.27;;
58567;SDS011;44354;46.192;-1.076;2023-01-19T01:30:19;27.15;;;25.65;;
58567;SDS011;44354;46.192;-1.076;2023-01-19T01:32:45;23.42;;;22.23;;
58567;SDS011;44354;46.192;-1.076;2023-01-19T01:35:11;26.20;;;24.80;;
58567;SDS011;44354;46.192;-1.076;2023-01-19T01:37:37;25.48;;;24.17;;
58567;SDS011;44354;46.192;-1.076;2023-01-19T01:40:03;25.23;;;23.90;;
58567;SDS011;44354;46.192;-1.076;2023-01-19T01:42:30;26.00;;;24.60;;
58567;SDS011;44354;46.192;-1.076;2023-01-19T01:45:01;25.75;;;24.45;;
58567;SDS011;44354;46.192;-1.076;2023-01-19T01:55:27;25.45;;;24.15;;
58567;SDS011;44354;46.192;-1.076;2023-01-19T01:57:55;24.00;;;22.77;;
58567;SDS011;44354;46.192;-1.076;2023-01-19T02:00:25;26.40;;;25.00;;
58567;SDS011;44354;46.192;-1.076;2023-01-19T02:02:51;24.27;;;23.02;;
58567;SDS011;44354;46.192;-1.076;2023-01-19T02:05:25;24.67;;;23.38;;
58567;SDS011;44354;46.192;-1.076;2023-01-19T02:10:51;26.50;;;25.10;;
58567;SDS011;44354;46.192;-1.076;2023-01-19T02:13:37;24.80;;;23.50;;
58567;SDS011;44354;46.192;-1.076;2023-01-19T02:16:08;23.77;;;22.58;;
58567;SDS011;44354;46.192;-1.076;2023-01-19T02:18:35;26.75;;;25.35;;
58567;SDS011;44354;46.192;-1.076;2023-01-19T02:23:55;25.35;;;24.05;;
58567;SDS011;44354;46.192;-1.076;2023-01-19T02:28:49;26.88;;;25.48;;
58567;SDS011;44354;46.192;-1.076;2023-01-19T02:31:21;27.00;;;25.60;;
58567;SDS011;44354;46.192;-1.076;2023-01-19T02:33:47;28.92;;;27.42;;
58567;SDS011;44354;46.192;-1.076;2023-01-19T02:36:13;30.33;;;28.73;;
58567;SDS011;44354;46.192;-1.076;2023-01-19T02:38:42;28.95;;;27.45;;
58567;SDS011;44354;46.192;-1.076;2023-01-19T02:41:10;30.13;;;28.52;;
58567;SDS011;44354;46.192;-1.076;2023-01-19T02:43:38;32.38;;;30.67;;
58567;SDS011;44354;46.192;-1.076;2023-01-19T02:46:05;29.60;;;28.10;;
58567;SDS011;44354;46.192;-1.076;2023-01-19T02:48:32;30.33;;;28.73;;
58567;SDS011;44354;46.192;-1.076;2023-01-19T02:51:01;31.45;;;29.85;;
58567;SDS011;44354;46.192;-1.076;2023-01-19T02:53:37;31.52;;;29.90;;
58567;SDS011;44354;46.192;-1.076;2023-01-19T02:58:57;30.23;;;28.63;;
58567;SDS011;44354;46.192;-1.076;2023-01-19T03:13:05;30.10;;;28.52;;
58567;SDS011;44354;46.192;-1.076;2023-01-19T03:15:58;33.03;;;31.33;;
58567;SDS011;44354;46.192;-1.076;2023-01-19T03:18:31;32.50;;;30.80;;
58567;SDS011;44354;46.192;-1.076;2023-01-19T03:21:00;32.33;;;30.63;;
58567;SDS011;44354;46.192;-1.076;2023-01-19T03:23:30;31.38;;;29.75;;
58567;SDS011;44354;46.192;-1.076;2023-01-19T03:25:58;31.60;;;29.95;;
58567;SDS011;44354;46.192;-1.076;2023-01-19T03:28:25;30.00;;;28.45;;
58567;SDS011;44354;46.192;-1.076;2023-01-19T03:30:58;29.35;;;27.85;;
58567;SDS011;44354;46.192;-1.076;2023-01-19T03:33:31;30.95;;;29.35;;
58567;SDS011;44354;46.192;-1.076;2023-01-19T03:36:03;32.03;;;30.33;;
58567;SDS011;44354;46.192;-1.076;2023-01-19T03:38:34;31.15;;;29.55;;
58567;SDS011;44354;46.192;-1.076;2023-01-19T03:41:03;30.77;;;29.17;;
58567;SDS011;44354;46.192;-1.076;2023-01-19T03:43:33;30.80;;;29.20;;
58567;SDS011;44354;46.192;-1.076;2023-01-19T03:46:02;31.27;;;29.67;;
58567;SDS011;44354;46.192;-1.076;2023-01-19T03:48:30;29.83;;;28.27;;
58567;SDS011;44354;46.192;-1.076;2023-01-19T03:50:57;31.77;;;30.13;;
58567;SDS011;44354;46.192;-1.076;2023-01-19T03:53:26;31.13;;;29.52;;
58567;SDS011;44354;46.192;-1.076;2023-01-19T03:55:52;31.88;;;30.20;;
58567;SDS011;44354;46.192;-1.076;2023-01-19T03:58:19;32.22;;;30.52;;
58567;SDS011;44354;46.192;-1.076;2023-01-19T04:00:46;30.15;;;28.55;;
58567;SDS011;44354;46.192;-1.076;2023-01-19T04:03:12;31.05;;;29.45;;
58567;SDS011;44354;46.192;-1.076;2023-01-19T04:05:41;30.25;;;28.65;;
58567;SDS011;44354;46.192;-1.076;2023-01-19T04:08:07;29.35;;;27.85;;
58567;SDS011;44354;46.192;-1.076;2023-01-19T04:10:33;29.77;;;28.23;;
58567;SDS011;44354;46.192;-1.076;2023-01-19T04:13:00;28.77;;;27.27;;
58567;SDS011;44354;46.192;-1.076;2023-01-19T04:15:26;29.38;;;27.88;;
58567;SDS011;44354;46.192;-1.076;2023-01-19T04:17:52;31.08;;;29.48;;
58567;SDS011;44354;46.192;-1.076;2023-01-19T04:20:18;29.05;;;27.55;;
58567;SDS011;44354;46.192;-1.076;2023-01-19T04:22:45;29.65;;;28.13;;
58567;SDS011;44354;46.192;-1.076;2023-01-19T04:25:11;28.60;;;27.10;;
58567;SDS011;44354;46.192;-1.076;2023-01-19T04:27:37;35.08;;;33.03;;
58567;SDS011;44354;46.192;-1.076;2023-01-19T04:30:03;28.58;;;27.08;;
58567;SDS011;44354;46.192;-1.076;2023-01-19T04:32:29;27.42;;;26.02;;
58567;SDS011;44354;46.192;-1.076;2023-01-19T04:34:56;28.58;;;27.08;;
58567;SDS011;44354;46.192;-1.076;2023-01-19T04:37:21;26.17;;;24.83;;
58567;SDS011;44354;46.192;-1.076;2023-01-19T04:39:47;26.85;;;25.45;;
58567;SDS011;44354;46.192;-1.076;2023-01-19T04:42:13;26.50;;;25.10;;
58567;SDS011;44354;46.192;-1.076;2023-01-19T04:44:39;27.45;;;26.05;;
58567;SDS011;44354;46.192;-1.076;2023-01-19T04:47:05;27.25;;;25.85;;
58567;SDS011;44354;46.192;-1.076;2023-01-19T04:49:30;29.52;;;28.02;;
58567;SDS011;44354;46.192;-1.076;2023-01-19T04:51:56;28.77;;;27.27;;
58567;SDS011;44354;46.192;-1.076;2023-01-19T04:54:22;29.55;;;28.05;;
58567;SDS011;44354;46.192;-1.076;2023-01-19T04:56:47;30.35;;;28.75;;
58567;SDS011;44354;46.192;-1.076;2023-01-19T04:59:13;28.67;;;27.17;;
58567;SDS011;44354;46.192;-1.076;2023-01-19T05:01:39;27.90;;;26.45;;
58567;SDS011;44354;46.192;-1.076;2023-01-19T05:04:05;31.85;;;30.17;;
58567;SDS011;44354;46.192;-1.076;2023-01-19T05:06:32;31.05;;;29.45;;
58567;SDS011;44354;46.192;-1.076;2023-01-19T05:08:58;31.92;;;30.25;;
58567;SDS011;44354;46.192;-1.076;2023-01-19T05:11:24;31.92;;;30.23;;
58567;SDS011;44354;46.192;-1.076;2023-01-19T05:13:50;32.97;;;31.27;;
58567;SDS011;44354;46.192;-1.076;2023-01-19T05:16:15;31.88;;;30.17;;
58567;SDS011;44354;46.192;-1.076;2023-01-19T05:18:41;32.05;;;30.35;;
58567;SDS011;44354;46.192;-1.076;2023-01-19T05:21:07;29.75;;;28.20;;
58567;SDS011;44354;46.192;-1.076;2023-01-19T05:23:33;32.92;;;31.23;;
58567;SDS011;44354;46.192;-1.076;2023-01-19T05:25:59;30.00;;;28.40;;
58567;SDS011;44354;46.192;-1.076;2023-01-19T05:28:29;33.80;;;32.00;;
58567;SDS011;44354;46.192;-1.076;2023-01-19T05:30:56;31.52;;;29.90;;
58567;SDS011;44354;46.192;-1.076;2023-01-19T05:33:22;31.45;;;29.85;;
58567;SDS011;44354;46.192;-1.076;2023-01-19T05:35:48;32.63;;;30.92;;
58567;SDS011;44354;46.192;-1.076;2023-01-19T05:38:15;32.65;;;30.95;;
58567;SDS011;44354;46.192;-1.076;2023-01-19T05:40:41;31.98;;;30.27;;
58567;SDS011;44354;46.192;-1.076;2023-01-19T05:43:07;29.98;;;28.40;;
58567;SDS011;44354;46.192;-1.076;2023-01-19T05:45:32;32.05;;;30.35;;
58567;SDS011;44354;46.192;-1.076;2023-01-19T05:47:58;31.88;;;30.17;;
58567;SDS011;44354;46.192;-1.076;2023-01-19T05:50:24;30.08;;;28.48;;
58567;SDS011;44354;46.192;-1.076;2023-01-19T05:52:50;29.50;;;28.00;;
58567;SDS011;44354;46.192;-1.076;2023-01-19T05:55:17;31.33;;;29.73;;
58567;SDS011;44354;46.192;-1.076;2023-01-19T05:57:43;30.17;;;28.60;;
58567;SDS011;44354;46.192;-1.076;2023-01-19T06:00:09;31.48;;;29.85;;
58567;SDS011;44354;46.192;-1.076;2023-01-19T06:02:35;30.65;;;29.05;;
58567;SDS011;44354;46.192;-1.076;2023-01-19T06:05:01;30.52;;;28.92;;
58567;SDS011;44354;46.192;-1.076;2023-01-19T06:07:28;30.75;;;29.15;;
58567;SDS011;44354;46.192;-1.076;2023-01-19T06:09:55;30.70;;;29.10;;
58567;SDS011;44354;46.192;-1.076;2023-01-19T06:12:21;30.52;;;28.92;;
58567;SDS011;44354;46.192;-1.076;2023-01-19T06:14:47;31.38;;;29.77;;
58567;SDS011;44354;46.192;-1.076;2023-01-19T06:17:13;26.65;;;25.25;;
58567;SDS011;44354;46.192;-1.076;2023-01-19T06:19:39;29.77;;;28.23;;
58567;SDS011;44354;46.192;-1.076;2023-01-19T06:22:04;28.58;;;27.08;;
58567;SDS011;44354;46.192;-1.076;2023-01-19T06:24:30;29.90;;;28.35;;
58567;SDS011;44354;46.192;-1.076;2023-01-19T06:26:57;28.30;;;26.80;;
58567;SDS011;44354;46.192;-1.076;2023-01-19T06:29:24;27.90;;;26.48;;
58567;SDS011;44354;46.192;-1.076;2023-01-19T06:31:50;31.55;;;29.90;;
58567;SDS011;44354;46.192;-1.076;2023-01-19T06:34:16;29.38;;;27.88;;
58567;SDS011;44354;46.192;-1.076;2023-01-19T06:36:42;29.38;;;27.88;;
58567;SDS011;44354;46.192;-1.076;2023-01-19T06:39:08;30.13;;;28.52;;
58567;SDS011;44354;46.192;-1.076;2023-01-19T06:41:34;27.90;;;26.45;;
58567;SDS011;44354;46.192;-1.076;2023-01-19T06:44:00;29.58;;;28.08;;
58567;SDS011;44354;46.192;-1.076;2023-01-19T06:46:27;29.08;;;27.58;;
58567;SDS011;44354;46.192;-1.076;2023-01-19T06:48:53;26.98;;;25.58;;
58567;SDS011;44354;46.192;-1.076;2023-01-19T06:51:19;27.02;;;25.63;;
58567;SDS011;44354;46.192;-1.076;2023-01-19T06:53:45;26.85;;;25.45;;
58567;SDS011;44354;46.192;-1.076;2023-01-19T06:56:11;28.88;;;27.38;;
58567;SDS011;44354;46.192;-1.076;2023-01-19T06:58:37;28.10;;;26.63;;
58567;SDS011;44354;46.192;-1.076;2023-01-19T07:01:05;24.83;;;23.52;;
58567;SDS011;44354;46.192;-1.076;2023-01-19T07:03:32;25.92;;;24.63;;
58567;SDS011;44354;46.192;-1.076;2023-01-19T07:05:59;25.55;;;24.25;;
58567;SDS011;44354;46.192;-1.076;2023-01-19T07:08:26;24.27;;;23.00;;
58567;SDS011;44354;46.192;-1.076;2023-01-19T07:10:57;25.83;;;24.50;;
58567;SDS011;44354;46.192;-1.076;2023-01-19T07:13:24;26.48;;;25.08;;
58567;SDS011;44354;46.192;-1.076;2023-01-19T07:15:49;25.25;;;23.95;;
58567;SDS011;44354;46.192;-1.076;2023-01-19T07:18:15;25.35;;;24.05;;
58567;SDS011;44354;46.192;-1.076;2023-01-19T07:20:41;23.73;;;22.52;;
58567;SDS011;44354;46.192;-1.076;2023-01-19T07:23:08;22.63;;;21.45;;
58567;SDS011;44354;46.192;-1.076;2023-01-19T07:25:34;24.48;;;23.17;;
58567;SDS011;44354;46.192;-1.076;2023-01-19T07:28:00;24.17;;;22.92;;
58567;SDS011;44354;46.192;-1.076;2023-01-19T07:30:27;23.70;;;22.48;;
58567;SDS011;44354;46.192;-1.076;2023-01-19T07:32:53;23.65;;;22.45;;
58567;SDS011;44354;46.192;-1.076;2023-01-19T07:35:21;23.80;;;22.60;;
58567;SDS011;44354;46.192;-1.076;2023-01-19T07:37:46;26.15;;;24.55;;
58567;SDS011;44354;46.192;-1.076;2023-01-19T07:40:13;24.67;;;23.38;;
58567;SDS011;44354;46.192;-1.076;2023-01-19T07:42:39;24.98;;;23.67;;
58567;SDS011;44354;46.192;-1.076;2023-01-19T07:45:10;23.75;;;22.55;;
58567;SDS011;44354;46.192;-1.076;2023-01-19T07:47:36;23.70;;;22.50;;
58567;SDS011;44354;46.192;-1.076;2023-01-19T07:50:01;24.55;;;23.25;;
58567;SDS011;44354;46.192;-1.076;2023-01-19T07:52:27;25.05;;;23.75;;
58567;SDS011;44354;46.192;-1.076;2023-01-19T07:54:53;27.90;;;26.30;;
58567;SDS011;44354;46.192;-1.076;2023-01-19T07:57:19;23.15;;;21.95;;
58567;SDS011;44354;46.192;-1.076;2023-01-19T07:59:45;22.40;;;21.25;;
58567;SDS011;44354;46.192;-1.076;2023-01-19T08:02:14;24.80;;;23.50;;
58567;SDS011;44354;46.192;-1.076;2023-01-19T08:04:39;23.65;;;22.45;;
58567;SDS011;44354;46.192;-1.076;2023-01-19T08:07:05;23.17;;;21.98;;
58567;SDS011;44354;46.192;-1.076;2023-01-19T08:09:34;23.55;;;22.35;;
58567;SDS011;44354;46.192;-1.076;2023-01-19T08:11:59;23.30;;;22.10;;
58567;SDS011;44354;46.192;-1.076;2023-01-19T08:14:25;21.88;;;20.77;;
58567;SDS011;44354;46.192;-1.076;2023-01-19T08:16:51;21.90;;;20.80;;
58567;SDS011;44354;46.192;-1.076;2023-01-19T08:19:16;23.20;;;21.48;;
58567;SDS011;44354;46.192;-1.076;2023-01-19T08:21:45;21.35;;;20.25;;
58567;SDS011;44354;46.192;-1.076;2023-01-19T08:24:16;23.80;;;22.60;;
58567;SDS011;44354;46.192;-1.076;2023-01-19T08:26:45;22.00;;;20.80;;
58567;SDS011;44354;46.192;-1.076;2023-01-19T08:29:11;21.85;;;20.75;;
58567;SDS011;44354;46.192;-1.076;2023-01-19T08:31:37;20.50;;;19.45;;
58567;SDS011;44354;46.192;-1.076;2023-01-19T08:34:03;19.77;;;18.77;;
58567;SDS011;44354;46.192;-1.076;2023-01-19T08:36:29;20.85;;;19.75;;
58567;SDS011;44354;46.192;-1.076;2023-01-19T08:38:58;20.60;;;19.52;;
58567;SDS011;44354;46.192;-1.076;2023-01-19T08:41:24;20.45;;;19.40;;
58567;SDS011;44354;46.192;-1.076;2023-01-19T08:43:50;19.55;;;18.55;;
58567;SDS011;44354;46.192;-1.076;2023-01-19T08:46:15;20.23;;;19.23;;
58567;SDS011;44354;46.192;-1.076;2023-01-19T08:48:44;21.05;;;19.95;;
58567;SDS011;44354;46.192;-1.076;2023-01-19T08:51:13;20.67;;;19.60;;
58567;SDS011;44354;46.192;-1.076;2023-01-19T08:53:39;20.02;;;19.02;;
58567;SDS011;44354;46.192;-1.076;2023-01-19T08:56:06;19.42;;;18.42;;
58567;SDS011;44354;46.192;-1.076;2023-01-19T08:58:36;20.02;;;19.02;;
58567;SDS011;44354;46.192;-1.076;2023-01-19T09:01:03;19.77;;;18.77;;
58567;SDS011;44354;46.192;-1.076;2023-01-19T09:03:30;19.08;;;18.08;;
58567;SDS011;44354;46.192;-1.076;2023-01-19T09:05:55;19.45;;;18.45;;
58567;SDS011;44354;46.192;-1.076;2023-01-19T09:08:21;18.75;;;17.77;;
58567;SDS011;44354;46.192;-1.076;2023-01-19T09:10:48;19.30;;;18.30;;
58567;SDS011;44354;46.192;-1.076;2023-01-19T09:13:15;18.85;;;17.88;;
58567;SDS011;44354;46.192;-1.076;2023-01-19T09:15:42;17.80;;;16.90;;
58567;SDS011;44354;46.192;-1.076;2023-01-19T09:18:11;17.60;;;16.70;;
58567;SDS011;44354;46.192;-1.076;2023-01-19T09:20:40;19.88;;;18.88;;
58567;SDS011;44354;46.192;-1.076;2023-01-19T09:23:07;20.17;;;19.17;;
58567;SDS011;44354;46.192;-1.076;2023-01-19T09:25:35;18.63;;;17.67;;
58567;SDS011;44354;46.192;-1.076;2023-01-19T09:28:05;20.27;;;19.27;;
58567;SDS011;44354;46.192;-1.076;2023-01-19T09:30:33;20.25;;;19.25;;
58567;SDS011;44354;46.192;-1.076;2023-01-19T09:33:04;20.38;;;19.35;;
58567;SDS011;44354;46.192;-1.076;2023-01-19T09:35:33;22.02;;;20.92;;
58567;SDS011;44354;46.192;-1.076;2023-01-19T09:37:59;19.00;;;18.00;;
58567;SDS011;44354;46.192;-1.076;2023-01-19T09:40:25;20.75;;;19.67;;
58567;SDS011;44354;46.192;-1.076;2023-01-19T09:42:56;21.98;;;20.88;;
58567;SDS011;44354;46.192;-1.076;2023-01-19T09:45:58;20.15;;;19.15;;
58567;SDS011;44354;46.192;-1.076;2023-01-19T09:48:31;21.35;;;20.25;;
58567;SDS011;44354;46.192;-1.076;2023-01-19T09:51:15;20.80;;;19.70;;
58567;SDS011;44354;46.192;-1.076;2023-01-19T09:54:05;20.42;;;19.38;;
58567;SDS011;44354;46.192;-1.076;2023-01-19T09:56:38;21.00;;;19.90;;
58567;SDS011;44354;46.192;-1.076;2023-01-19T09:59:16;21.70;;;20.60;;
58567;SDS011;44354;46.192;-1.076;2023-01-19T10:01:52;19.50;;;18.50;;
58567;SDS011;44354;46.192;-1.076;2023-01-19T10:04:39;19.80;;;18.80;;
58567;SDS011;44354;46.192;-1.076;2023-01-19T10:12:47;19.65;;;18.65;;
58567;SDS011;44354;46.192;-1.076;2023-01-19T10:18:26;18.85;;;17.85;;
58567;SDS011;44354;46.192;-1.076;2023-01-19T10:26:17;17.50;;;16.60;;
58567;SDS011;44354;46.192;-1.076;2023-01-19T10:28:47;17.50;;;16.60;;
58567;SDS011;44354;46.192;-1.076;2023-01-19T10:31:18;18.70;;;17.73;;
58567;SDS011;44354;46.192;-1.076;2023-01-19T10:33:47;20.33;;;19.10;;
58567;SDS011;44354;46.192;-1.076;2023-01-19T10:36:16;19.45;;;18.45;;
58567;SDS011;44354;46.192;-1.076;2023-01-19T10:38:48;20.08;;;19.05;;
58567;SDS011;44354;46.192;-1.076;2023-01-19T10:41:16;18.83;;;17.85;;
58567;SDS011;44354;46.192;-1.076;2023-01-19T10:43:44;19.20;;;18.20;;
58567;SDS011;44354;46.192;-1.076;2023-01-19T10:48:51;17.45;;;16.55;;
58567;SDS011;44354;46.192;-1.076;2023-01-19T10:51:18;16.83;;;15.95;;
58567;SDS011;44354;46.192;-1.076;2023-01-19T10:56:39;17.30;;;16.40;;
58567;SDS011;44354;46.192;-1.076;2023-01-19T10:59:06;16.42;;;15.63;;
58567;SDS011;44354;46.192;-1.076;2023-01-19T11:02:25;16.80;;;15.93;;
58567;SDS011;44354;46.192;-1.076;2023-01-19T11:04:45;16.25;;;15.45;;
58567;SDS011;44354;46.192;-1.076;2023-01-19T11:09:39;15.60;;;14.80;;
58567;SDS011;44354;46.192;-1.076;2023-01-19T11:12:07;14.15;;;13.45;;
58567;SDS011;44354;46.192;-1.076;2023-01-19T11:14:44;14.55;;;13.85;;
58567;SDS011;44354;46.192;-1.076;2023-01-19T11:17:21;14.20;;;13.50;;
58567;SDS011;44354;46.192;-1.076;2023-01-19T11:19:53;14.75;;;14.05;;
58567;SDS011;44354;46.192;-1.076;2023-01-19T11:22:30;14.85;;;14.10;;
58567;SDS011;44354;46.192;-1.076;2023-01-19T11:24:58;13.35;;;12.65;;
58567;SDS011;44354;46.192;-1.076;2023-01-19T11:27:26;13.88;;;13.18;;
58567;SDS011;44354;46.192;-1.076;2023-01-19T11:30:01;13.60;;;12.90;;
58567;SDS011;44354;46.192;-1.076;2023-01-19T11:32:34;12.65;;;12.05;;
58567;SDS011;44354;46.192;-1.076;2023-01-19T11:35:02;13.43;;;12.73;;
58567;SDS011;44354;46.192;-1.076;2023-01-19T11:37:47;12.52;;;11.93;;
58567;SDS011;44354;46.192;-1.076;2023-01-19T11:40:14;12.00;;;11.40;;
58567;SDS011;44354;46.192;-1.076;2023-01-19T11:42:40;12.27;;;11.68;;
58567;SDS011;44354;46.192;-1.076;2023-01-19T11:45:11;11.88;;;11.27;;
58567;SDS011;44354;46.192;-1.076;2023-01-19T11:47:43;11.18;;;10.63;;
58567;SDS011;44354;46.192;-1.076;2023-01-19T11:58:13;10.95;;;10.45;;
58567;SDS011;44354;46.192;-1.076;2023-01-19T12:00:48;12.80;;;12.13;;
58567;SDS011;44354;46.192;-1.076;2023-01-19T12:06:05;10.63;;;10.13;;
58567;SDS011;44354;46.192;-1.076;2023-01-19T12:08:36;12.73;;;12.02;;
58567;SDS011;44354;46.192;-1.076;2023-01-19T12:11:07;11.43;;;10.82;;
58567;SDS011;44354;46.192;-1.076;2023-01-19T12:13:38;12.38;;;11.77;;
58567;SDS011;44354;46.192;-1.076;2023-01-19T12:16:18;13.10;;;12.07;;
58567;SDS011;44354;46.192;-1.076;2023-01-19T12:18:47;12.02;;;11.43;;
58567;SDS011;44354;46.192;-1.076;2023-01-19T12:21:21;11.60;;;11.00;;
58567;SDS011;44354;46.192;-1.076;2023-01-19T12:28:57;11.85;;;11.25;;
58567;SDS011;44354;46.192;-1.076;2023-01-19T12:31:28;12.77;;;12.18;;
58567;SDS011;44354;46.192;-1.076;2023-01-19T12:33:54;12.63;;;12.02;;
58567;SDS011;44354;46.192;-1.076;2023-01-19T12:39:00;11.30;;;10.70;;
58567;SDS011;44354;46.192;-1.076;2023-01-19T12:41:36;10.48;;;9.93;;
58567;SDS011;44354;46.192;-1.076;2023-01-19T12:46:45;12.68;;;11.98;;
58567;SDS011;44354;46.192;-1.076;2023-01-19T13:00:05;10.90;;;10.40;;
58567;SDS011;44354;46.192;-1.076;2023-01-19T13:02:42;16.55;;;15.20;;
58567;SDS011;44354;46.192;-1.076;2023-01-19T13:05:10;11.15;;;10.63;;
58567;SDS011;44354;46.192;-1.076;2023-01-19T13:16:43;11.18;;;10.60;;
58567;SDS011;44354;46.192;-1.076;2023-01-19T13:21:34;10.82;;;10.32;;
58567;SDS011;44354;46.192;-1.076;2023-01-19T13:24:08;9.63;;;9.13;;
58567;SDS011;44354;46.192;-1.076;2023-01-19T13:26:35;9.30;;;8.85;;
58567;SDS011;44354;46.192;-1.076;2023-01-19T13:31:46;12.27;;;11.68;;
58567;SDS011;44354;46.192;-1.076;2023-01-19T13:34:26;8.68;;;8.27;;
58567;SDS011;44354;46.192;-1.076;2023-01-19T13:36:55;12.02;;;11.40;;
58567;SDS011;44354;46.192;-1.076;2023-01-19T13:39:31;12.63;;;11.80;;
58567;SDS011;44354;46.192;-1.076;2023-01-19T13:42:04;11.32;;;10.52;;
58567;SDS011;44354;46.192;-1.076;2023-01-19T13:44:46;13.65;;;12.60;;
58567;SDS011;44354;46.192;-1.076;2023-01-19T13:47:24;11.27;;;10.57;;
58567;SDS011;44354;46.192;-1.076;2023-01-19T13:50:00;11.05;;;10.50;;
58567;SDS011;44354;46.192;-1.076;2023-01-19T13:52:27;13.18;;;12.27;;
58567;SDS011;44354;46.192;-1.076;2023-01-19T13:54:58;10.65;;;9.93;;
58567;SDS011;44354;46.192;-1.076;2023-01-19T13:57:44;10.35;;;9.85;;
58567;SDS011;44354;46.192;-1.076;2023-01-19T14:00:17;9.18;;;8.68;;
58567;SDS011;44354;46.192;-1.076;2023-01-19T14:05:24;11.48;;;10.77;;
58567;SDS011;44354;46.192;-1.076;2023-01-19T14:08:03;9.15;;;8.65;;
58567;SDS011;44354;46.192;-1.076;2023-01-19T14:10:42;10.20;;;9.70;;
58567;SDS011;44354;46.192;-1.076;2023-01-19T14:13:30;9.27;;;8.82;;
58567;SDS011;44354;46.192;-1.076;2023-01-19T14:15:58;9.90;;;9.40;;
58567;SDS011;44354;46.192;-1.076;2023-01-19T14:18:39;11.13;;;10.15;;
58567;SDS011;44354;46.192;-1.076;2023-01-19T14:21:12;10.23;;;9.73;;
58567;SDS011;44354;46.192;-1.076;2023-01-19T14:23:52;9.95;;;9.45;;
58567;SDS011;44354;46.192;-1.076;2023-01-19T14:34:28;10.27;;;9.02;;
58567;SDS011;44354;46.192;-1.076;2023-01-19T14:39:51;9.63;;;9.13;;
58567;SDS011;44354;46.192;-1.076;2023-01-19T14:42:27;10.57;;;9.63;;
58567;SDS011;44354;46.192;-1.076;2023-01-19T14:45:00;9.55;;;9.05;;
58567;SDS011;44354;46.192;-1.076;2023-01-19T14:47:32;11.80;;;11.00;;
58567;SDS011;44354;46.192;-1.076;2023-01-19T14:50:05;11.15;;;10.55;;
58567;SDS011;44354;46.192;-1.076;2023-01-19T14:52:42;10.18;;;9.68;;
58567;SDS011;44354;46.192;-1.076;2023-01-19T14:55:22;10.70;;;10.20;;
58567;SDS011;44354;46.192;-1.076;2023-01-19T14:57:52;10.98;;;10.48;;
58567;SDS011;44354;46.192;-1.076;2023-01-19T15:00:18;12.48;;;11.73;;
58567;SDS011;44354;46.192;-1.076;2023-01-19T15:02:45;11.35;;;10.75;;
58567;SDS011;44354;46.192;-1.076;2023-01-19T15:05:11;11.45;;;10.80;;
58567;SDS011;44354;46.192;-1.076;2023-01-19T15:07:38;14.25;;;12.95;;
58567;SDS011;44354;46.192;-1.076;2023-01-19T15:10:11;9.82;;;9.32;;
58567;SDS011;44354;46.192;-1.076;2023-01-19T15:12:41;12.70;;;12.03;;
58567;SDS011;44354;46.192;-1.076;2023-01-19T15:15:12;11.07;;;10.40;;
58567;SDS011;44354;46.192;-1.076;2023-01-19T15:17:46;11.80;;;11.00;;
58567;SDS011;44354;46.192;-1.076;2023-01-19T15:20:16;12.93;;;11.82;;
58567;SDS011;44354;46.192;-1.076;2023-01-19T15:22:43;13.57;;;12.80;;
58567;SDS011;44354;46.192;-1.076;2023-01-19T15:25:17;18.73;;;17.23;;
58567;SDS011;44354;46.192;-1.076;2023-01-19T15:27:45;13.27;;;12.57;;
58567;SDS011;44354;46.192;-1.076;2023-01-19T15:30:16;12.50;;;11.88;;
58567;SDS011;44354;46.192;-1.076;2023-01-19T15:32:47;16.83;;;15.82;;
58567;SDS011;44354;46.192;-1.076;2023-01-19T15:35:17;13.38;;;12.68;;
58567;SDS011;44354;46.192;-1.076;2023-01-19T15:37:45;17.02;;;15.93;;
58567;SDS011;44354;46.192;-1.076;2023-01-19T15:40:11;14.82;;;14.02;;
58567;SDS011;44354;46.192;-1.076;2023-01-19T15:42:38;16.52;;;15.27;;
58567;SDS011;44354;46.192;-1.076;2023-01-19T15:47:56;13.02;;;12.32;;
58567;SDS011;44354;46.192;-1.076;2023-01-19T15:50:22;13.45;;;12.68;;
58567;SDS011;44354;46.192;-1.076;2023-01-19T15:52:50;13.82;;;13.13;;
58567;SDS011;44354;46.192;-1.076;2023-01-19T15:55:15;14.07;;;13.38;;
58567;SDS011;44354;46.192;-1.076;2023-01-19T15:57:41;13.85;;;13.15;;
58567;SDS011;44354;46.192;-1.076;2023-01-19T16:00:07;12.55;;;11.85;;
58567;SDS011;44354;46.192;-1.076;2023-01-19T16:02:35;11.65;;;11.05;;
58567;SDS011;44354;46.192;-1.076;2023-01-19T16:05:01;12.60;;;12.00;;
58567;SDS011;44354;46.192;-1.076;2023-01-19T16:07:27;13.02;;;12.35;;
58567;SDS011;44354;46.192;-1.076;2023-01-19T16:09:53;12.63;;;12.02;;
58567;SDS011;44354;46.192;-1.076;2023-01-19T16:12:18;13.52;;;12.82;;
58567;SDS011;44354;46.192;-1.076;2023-01-19T16:14:44;13.32;;;12.63;;
58567;SDS011;44354;46.192;-1.076;2023-01-19T16:17:10;12.70;;;12.07;;
58567;SDS011;44354;46.192;-1.076;2023-01-19T16:19:35;12.32;;;11.73;;